WetterOnline ( http://www.wetteronline.de )

Wetter aktuell Frankfurt (Oder)

Aktuelles Wetter: Manschnow (16m)

6-stündlich | Neueste Meldungen
Ortszeit Temperatur Wetter
Mi, 23.05. 14:00 25.2° C fast wolkenlos
Mi, 23.05. 8:00 15.8° C leicht bewölkt
Mi, 23.05. 2:00 11.4° C fast wolkenlos
Di, 22.05. 20:00 22.2° C fast wolkenlos
Di, 22.05. 14:00 23.3° C fast wolkenlos
Di, 22.05. 8:00 14.0° C wolkenlos
Di, 22.05. 2:00 12.5° C fast wolkenlos
Mo, 21.05. 20:00 21.2° C wolkenlos
Ortszeit Temperatur Wetter
Mi, 23.05. 18:30 24.8° C wolkig
Mi, 23.05. 18:20 24.8° C wolkig
Mi, 23.05. 18:10 24.8° C wolkig
Mi, 23.05. 18:00 24.9° C leicht bewölkt
Mi, 23.05. 17:50 24.9° C wolkig
Mi, 23.05. 17:40 25.0° C wolkig
Mi, 23.05. 17:30 25.1° C wolkig
Mi, 23.05. 17:00 25.7° C leicht bewölkt
Mi, 23.05. 16:30 25.4° C wolkenlos
Mi, 23.05. 16:00 25.7° C wolkenlos
Mi, 23.05. 15:30 25.5° C leicht bewölkt
Ortszeit Relative Feuchte Sichtweite
Mi, 23.05. 14:00 32% 12 km
Mi, 23.05. 8:00 65% 14 km
Mi, 23.05. 2:00 78% 21 km
Di, 22.05. 20:00 38% 28 km
Di, 22.05. 14:00 30% 11 km
Di, 22.05. 8:00 67% 12 km
Di, 22.05. 2:00 69% 22 km
Mo, 21.05. 20:00 37% 27 km
Ortszeit Relative Feuchte Sichtweite
Mi, 23.05. 18:30 37% 14 km
Mi, 23.05. 18:20 37% -
Mi, 23.05. 18:10 37% -
Mi, 23.05. 18:00 36% 13 km
Mi, 23.05. 17:50 36% -
Mi, 23.05. 17:40 35% -
Mi, 23.05. 17:30 33% 16 km
Mi, 23.05. 17:00 33% 11 km
Mi, 23.05. 16:30 33% 7 km
Mi, 23.05. 16:00 33% 8 km
Mi, 23.05. 15:30 33% 10 km
Ortszeit Niederschlagsmenge Niederschlagsart
Mi, 23.05. 14:00 0.0 l/m2 in 6 Std. -
Mi, 23.05. 8:00 0.0 l/m2 in 12 Std. -
Mi, 23.05. 2:00 0.0 l/m2 in 6 Std. -
Di, 22.05. 20:00 0.0 l/m2 in 12 Std. -
Di, 22.05. 14:00 0.0 l/m2 in 6 Std. -
Di, 22.05. 8:00 0.0 l/m2 in 12 Std. -
Di, 22.05. 2:00 0.0 l/m2 in 6 Std. -
Mo, 21.05. 20:00 0.0 l/m2 in 12 Std. -
Ortszeit Niederschlagsmenge Niederschlagsart
Mi, 23.05. 18:30 0.0 l/m2 in 1 Std. -
Mi, 23.05. 18:20 keine Meldung -
Mi, 23.05. 18:10 keine Meldung -
Mi, 23.05. 18:00 0.0 l/m2 in 1 Std. -
Mi, 23.05. 17:50 keine Meldung -
Mi, 23.05. 17:40 keine Meldung -
Mi, 23.05. 17:30 0.0 l/m2 in 1 Std. -
Mi, 23.05. 17:00 0.0 l/m2 in 1 Std. -
Mi, 23.05. 16:30 0.0 l/m2 in 1 Std. -
Mi, 23.05. 16:00 0.0 l/m2 in 1 Std. -
Mi, 23.05. 15:30 0.0 l/m2 in 1 Std. -
Ortszeit Stärke Spitze Richtung
km/h Bft. km/h Grad Sektor
Mi, 23.05. 14:00 11 2 29 80° O
Mi, 23.05. 8:00 9 2 17 40° NO
Mi, 23.05. 2:00 2 1 13 40° NO
Di, 22.05. 20:00 7 2 29 60° NO
Di, 22.05. 14:00 11 2 29 90° O
Di, 22.05. 8:00 7 2 18 80° O
Di, 22.05. 2:00 7 2 18 70° O
Mo, 21.05. 20:00 11 2 36 110° O
Ortszeit Stärke Spitze Richtung
km/h Bft. km/h Grad Sektor
Mi, 23.05. 18:30 13 3 24 30° NO
Mi, 23.05. 18:20 13 3 - 30° NO
Mi, 23.05. 18:10 15 3 - 30° NO
Mi, 23.05. 18:00 14 3 25 30° NO
Mi, 23.05. 17:50 14 3 - 30° NO
Mi, 23.05. 17:40 11 2 - 40° NO
Mi, 23.05. 17:30 11 2 25 50° NO
Mi, 23.05. 17:00 13 3 22 40° NO
Mi, 23.05. 16:30 14 3 22 30° NO
Mi, 23.05. 16:00 13 3 26 30° NO
Mi, 23.05. 15:30 13 3 26 80° O
Ortszeit Untergrenze Bedeckung Gattung
total tief tief mittel hoch
Mi, 23.05. 14:00 10500 m 1/8 0/8 - - -
Mi, 23.05. 8:00 10500 m 7/8 0/8 - - -
Mi, 23.05. 2:00 9000 m 1/8 0/8 - - -
Di, 22.05. 20:00 9000 m 1/8 0/8 - - -
Di, 22.05. 14:00 2100 m 1/8 1/8 - - -
Di, 22.05. 8:00 - 0/8 0/8 - - -
Di, 22.05. 2:00 2700 m 1/8 1/8 - - -
Mo, 21.05. 20:00 2400 m 0/8 0/8 - - -
Ortszeit Bedeckungsgrad in Achtel und Wolkenuntergrenze
Mi, 23.05. 18:30 8(9000m)
Mi, 23.05. 18:20 8(9000m)
Mi, 23.05. 18:10 1(8700m) 8(9000m)
Mi, 23.05. 18:00 2(9000m) 3(9000m) 8(9000m)
Mi, 23.05. 17:50 2(9000m) 3(9000m) 8(9000m)
Mi, 23.05. 17:40 2(9000m) 8(9000m)
Mi, 23.05. 17:30 8(9000m) 8(9000m)
Mi, 23.05. 17:00 3(7500m) 7(9000m)
Mi, 23.05. 16:30 1(2400m) 2(9000m) 3(9000m)
Mi, 23.05. 16:00 keine Wolken
Mi, 23.05. 15:30 5(9000m)
Ortszeit Luftdruck NN (hPa) Tendenz (hPa in 3 Std.)
Mi, 23.05. 14:00 1022 + 0,3
Mi, 23.05. 8:00 1021 + 1,8
Mi, 23.05. 2:00 1018 + 1,2
Di, 22.05. 20:00 1016 + 0,3
Di, 22.05. 14:00 1016 - 1,0
Di, 22.05. 8:00 1017 0,0
Di, 22.05. 2:00 1017 - 0,9
Mo, 21.05. 20:00 1018 - 0,9
Ortszeit Luftdruck NN (hPa) Tendenz (hPa in 3 Std.)
Mi, 23.05. 18:30 1021 - 0,6
Mi, 23.05. 18:20 1021 keine Meldung
Mi, 23.05. 18:10 1021 keine Meldung
Mi, 23.05. 18:00 1021 - 0,8
Mi, 23.05. 17:50 1021 keine Meldung
Mi, 23.05. 17:40 1021 keine Meldung
Mi, 23.05. 17:30 1021 - 0,7
Mi, 23.05. 17:00 1021 - 0,8
Mi, 23.05. 16:30 1021 - 0,9
Mi, 23.05. 16:00 1021 - 0,7
Mi, 23.05. 15:30 1021 - 0,2
Ortszeit Schneehöhe (cm)
Mi, 23.05. 14:00 -
Mi, 23.05. 8:00 -
Mi, 23.05. 2:00 -
Di, 22.05. 20:00 -
Di, 22.05. 14:00 -
Di, 22.05. 8:00 -
Di, 22.05. 2:00 -
Mo, 21.05. 20:00 -
Ortszeit Schneehöhe (cm)
Mi, 23.05. 18:30 -
Mi, 23.05. 18:20 -
Mi, 23.05. 18:10 -
Mi, 23.05. 18:00 -
Mi, 23.05. 17:50 -
Mi, 23.05. 17:40 -
Mi, 23.05. 17:30 -
Mi, 23.05. 17:00 -
Mi, 23.05. 16:30 -
Mi, 23.05. 16:00 -
Mi, 23.05. 15:30 -
Link zu dieser Seite / Seite empfehlen

Das Wetter in ...